createdAt,value
2023-03-29T00:01:00.154Z,6.35
2023-03-29T00:03:27.943Z,6.36
2023-03-29T00:06:03.041Z,6.37
2023-03-29T00:08:32.241Z,6.38
2023-03-29T00:10:59.478Z,6.37
2023-03-29T00:13:27.466Z,6.39
2023-03-29T00:15:54.757Z,6.39
2023-03-29T00:18:21.437Z,6.37
2023-03-29T00:20:56.583Z,6.39
2023-03-29T00:23:23.563Z,6.40
2023-03-29T00:25:53.388Z,6.36
2023-03-29T00:28:20.262Z,6.38
2023-03-29T00:30:47.308Z,6.35
2023-03-29T00:33:14.780Z,6.32
2023-03-29T00:35:43.549Z,6.34
2023-03-29T00:38:10.109Z,6.33
2023-03-29T00:40:43.865Z,6.34
2023-03-29T00:43:12.530Z,6.32
2023-03-29T00:45:39.206Z,6.32
2023-03-29T00:48:11.198Z,6.33
2023-03-29T00:50:41.674Z,6.34
2023-03-29T00:53:20.024Z,6.31
2023-03-29T00:55:53.340Z,6.30
2023-03-29T00:58:28.451Z,6.30
2023-03-29T01:01:08.777Z,6.32
2023-03-29T01:03:46.248Z,6.35
2023-03-29T01:06:16.246Z,6.36
2023-03-29T01:08:55.296Z,6.35
2023-03-29T01:11:27.513Z,6.37
2023-03-29T01:14:03.674Z,6.37
2023-03-29T01:16:33.150Z,6.38
2023-03-29T01:19:02.322Z,6.41
2023-03-29T01:21:51.604Z,6.40
2023-03-29T01:24:38.135Z,6.41
2023-03-29T01:27:12.600Z,6.41
2023-03-29T01:29:49.259Z,6.41
2023-03-29T01:32:22.368Z,6.44
2023-03-29T01:35:10.470Z,6.46
2023-03-29T01:37:46.163Z,6.49
2023-03-29T01:40:12.799Z,6.52
2023-03-29T01:42:52.049Z,6.54
2023-03-29T01:45:24.875Z,6.56
2023-03-29T01:47:59.876Z,6.57
2023-03-29T01:50:50.900Z,6.60
2023-03-29T01:53:25.425Z,6.61
2023-03-29T01:55:56.029Z,6.63
2023-03-29T01:58:29.652Z,6.65
2023-03-29T02:00:58.185Z,6.65
2023-03-29T02:03:28.170Z,6.69
2023-03-29T02:05:57.044Z,6.71
2023-03-29T02:08:24.712Z,6.70
2023-03-29T02:10:52.316Z,6.71
2023-03-29T02:13:19.573Z,6.72
2023-03-29T02:15:47.527Z,6.72
2023-03-29T02:18:17.740Z,6.72
2023-03-29T02:20:48.450Z,6.72
2023-03-29T02:23:24.673Z,6.73
2023-03-29T02:25:53.788Z,6.73
2023-03-29T02:28:23.245Z,6.72
2023-03-29T02:31:04.713Z,6.72
2023-03-29T02:33:53.143Z,6.72
2023-03-29T02:36:25.064Z,6.72
2023-03-29T02:38:53.326Z,6.72
2023-03-29T02:41:21.936Z,6.72
2023-03-29T02:43:49.569Z,6.74
2023-03-29T02:46:18.629Z,6.74
2023-03-29T02:48:48.557Z,6.76
2023-03-29T02:51:20.531Z,6.76
2023-03-29T02:53:53.782Z,6.77
2023-03-29T02:56:20.861Z,6.77
2023-03-29T02:58:47.506Z,6.80
2023-03-29T03:01:16.223Z,6.80
2023-03-29T03:03:43.169Z,6.80
2023-03-29T03:06:09.784Z,6.80
2023-03-29T03:08:36.520Z,6.81
2023-03-29T03:11:03.313Z,6.82
2023-03-29T03:13:38.719Z,6.80
2023-03-29T03:16:05.698Z,6.81
2023-03-29T03:18:32.651Z,6.84
2023-03-29T03:21:02.149Z,6.84
2023-03-29T03:23:29.601Z,6.84
2023-03-29T03:25:57.055Z,6.84
2023-03-29T03:28:24.385Z,6.84
2023-03-29T03:30:51.397Z,6.84
2023-03-29T03:33:19.197Z,6.85
2023-03-29T03:35:47.907Z,6.85
2023-03-29T03:38:16.358Z,6.85
2023-03-29T03:40:43.406Z,6.81
2023-03-29T03:43:10.241Z,6.79
2023-03-29T03:45:36.832Z,6.80
2023-03-29T03:48:03.501Z,6.81
2023-03-29T03:50:30.034Z,6.83
2023-03-29T03:52:56.602Z,6.85
2023-03-29T03:55:24.012Z,6.82
2023-03-29T03:57:52.020Z,6.83
2023-03-29T04:00:19.678Z,6.81
2023-03-29T04:02:48.359Z,6.81
2023-03-29T04:05:16.426Z,6.81
2023-03-29T04:07:43.534Z,6.80
2023-03-29T04:10:11.139Z,6.81
2023-03-29T04:12:38.673Z,6.79
2023-03-29T04:15:06.745Z,6.79
2023-03-29T04:17:37.026Z,6.81
2023-03-29T04:20:10.313Z,6.81
2023-03-29T04:22:37.077Z,6.82
2023-03-29T04:25:03.936Z,6.83
2023-03-29T04:27:30.681Z,6.83
2023-03-29T04:29:57.306Z,6.80
2023-03-29T04:32:24.857Z,6.81
2023-03-29T04:34:51.468Z,6.84
2023-03-29T04:37:22.014Z,6.84
2023-03-29T04:39:49.874Z,6.86
2023-03-29T04:42:17.034Z,6.88
2023-03-29T04:44:43.862Z,6.85
2023-03-29T04:47:13.184Z,6.83
2023-03-29T04:49:40.407Z,6.84
2023-03-29T04:52:07.946Z,6.83
2023-03-29T04:54:34.546Z,6.82
2023-03-29T04:57:01.119Z,6.83
2023-03-29T04:59:27.698Z,6.82
2023-03-29T05:01:54.767Z,6.83
2023-03-29T05:04:21.522Z,6.85
2023-03-29T05:06:49.001Z,6.88
2023-03-29T05:09:15.925Z,6.88
2023-03-29T05:11:42.708Z,6.87
2023-03-29T05:14:10.506Z,6.88
2023-03-29T05:16:38.156Z,6.88
2023-03-29T05:19:04.965Z,6.89
2023-03-29T05:21:31.751Z,6.92
2023-03-29T05:23:58.765Z,6.92
2023-03-29T05:26:25.551Z,6.92
2023-03-29T05:28:52.379Z,6.93
2023-03-29T05:31:19.913Z,6.92
2023-03-29T05:33:57.385Z,6.92
2023-03-29T05:36:24.703Z,6.95
2023-03-29T05:38:55.093Z,6.94
2023-03-29T05:41:22.786Z,6.95
2023-03-29T05:43:49.439Z,6.95
2023-03-29T05:46:16.440Z,6.98
2023-03-29T05:48:43.110Z,6.99
2023-03-29T05:51:10.085Z,7.00
2023-03-29T05:53:36.852Z,7.00
2023-03-29T05:56:04.059Z,7.01
2023-03-29T05:58:30.815Z,7.01
2023-03-29T06:00:57.738Z,7.02
2023-03-29T06:03:27.630Z,7.03
2023-03-29T06:05:58.707Z,7.03
2023-03-29T06:08:27.632Z,7.05
2023-03-29T06:11:04.611Z,7.05
2023-03-29T06:13:34.107Z,7.07
2023-03-29T06:16:01.500Z,7.10
2023-03-29T06:18:28.145Z,7.11
2023-03-29T06:20:54.820Z,7.12
2023-03-29T06:23:22.286Z,7.16
2023-03-29T06:25:51.374Z,7.20
2023-03-29T06:28:19.212Z,7.22
2023-03-29T06:30:46.159Z,7.25
2023-03-29T06:33:14.240Z,7.26
2023-03-29T06:35:44.488Z,7.28
2023-03-29T06:38:11.342Z,7.34
2023-03-29T06:40:38.253Z,7.38
2023-03-29T06:43:06.734Z,7.42
2023-03-29T06:45:36.143Z,7.45
2023-03-29T06:48:03.788Z,7.51
2023-03-29T06:50:31.143Z,7.54
2023-03-29T06:52:57.993Z,7.58
2023-03-29T06:55:26.005Z,7.62
2023-03-29T06:57:54.499Z,7.67
2023-03-29T07:00:28.972Z,7.72
2023-03-29T07:02:58.031Z,7.73
2023-03-29T07:05:31.661Z,7.77
2023-03-29T07:08:14.022Z,7.79
2023-03-29T07:10:43.057Z,7.84
2023-03-29T07:13:13.264Z,7.94
2023-03-29T07:15:42.108Z,8.03
2023-03-29T07:18:09.877Z,8.07
2023-03-29T07:20:38.723Z,8.13
2023-03-29T07:23:06.912Z,8.15
2023-03-29T07:25:34.094Z,8.19
2023-03-29T07:28:02.597Z,8.22
2023-03-29T07:30:32.172Z,8.25
2023-03-29T07:33:00.493Z,8.29
2023-03-29T07:35:28.382Z,8.29
2023-03-29T07:37:55.858Z,8.32
2023-03-29T07:40:24.016Z,8.33
2023-03-29T07:42:54.172Z,8.36
2023-03-29T07:45:26.707Z,8.41
2023-03-29T07:47:57.163Z,8.47
2023-03-29T07:50:24.811Z,8.53
2023-03-29T07:52:51.453Z,8.57
2023-03-29T07:55:18.600Z,8.60
2023-03-29T07:57:45.432Z,8.64
2023-03-29T08:00:20.096Z,8.69
2023-03-29T08:02:49.999Z,8.73
2023-03-29T08:05:23.430Z,8.79
2023-03-29T08:07:56.544Z,8.80
2023-03-29T08:10:23.395Z,8.83
2023-03-29T08:12:50.654Z,8.86
2023-03-29T08:15:17.468Z,8.92
2023-03-29T08:17:44.570Z,8.94
2023-03-29T08:20:27.581Z,8.97
2023-03-29T08:22:57.281Z,9.01
2023-03-29T08:25:24.016Z,9.04
2023-03-29T08:27:50.736Z,9.08
2023-03-29T08:30:17.465Z,9.10
2023-03-29T08:32:45.283Z,9.13
2023-03-29T08:35:12.873Z,9.18
2023-03-29T08:37:39.565Z,9.21
2023-03-29T08:40:06.876Z,9.26
2023-03-29T08:42:48.162Z,9.32
2023-03-29T08:45:18.816Z,9.37
2023-03-29T08:47:53.779Z,9.41
2023-03-29T08:50:25.946Z,9.44
2023-03-29T08:52:57.610Z,9.47
2023-03-29T08:55:32.804Z,9.48
2023-03-29T08:58:02.561Z,9.48
2023-03-29T09:00:42.911Z,9.50
2023-03-29T09:03:28.766Z,9.54
2023-03-29T09:06:02.902Z,9.57
2023-03-29T09:08:29.771Z,9.66
2023-03-29T09:11:07.110Z,9.72
2023-03-29T09:13:53.032Z,9.71
2023-03-29T09:16:38.891Z,9.72
2023-03-29T09:19:17.731Z,9.77
2023-03-29T09:22:20.269Z,9.80
2023-03-29T09:25:03.308Z,9.85
2023-03-29T09:27:51.491Z,9.89
2023-03-29T09:30:34.957Z,9.98
2023-03-29T09:33:13.210Z,10.05
2023-03-29T09:35:52.225Z,10.13
2023-03-29T09:38:30.508Z,10.26
2023-03-29T09:41:06.778Z,10.35
2023-03-29T09:43:40.788Z,10.37
2023-03-29T09:46:18.557Z,10.41
2023-03-29T09:48:46.517Z,10.45
2023-03-29T09:51:14.484Z,10.52
2023-03-29T09:53:41.288Z,10.57
2023-03-29T09:56:08.692Z,10.64
2023-03-29T09:58:36.215Z,10.70
2023-03-29T10:01:10.052Z,10.68
2023-03-29T10:03:37.026Z,10.69
2023-03-29T10:06:06.458Z,10.70
2023-03-29T10:08:51.733Z,10.73
2023-03-29T10:11:28.782Z,10.79
2023-03-29T10:14:00.334Z,10.88
2023-03-29T10:16:36.327Z,10.90
2023-03-29T10:19:19.203Z,10.93
2023-03-29T10:21:49.157Z,10.95
2023-03-29T10:24:23.985Z,10.99
2023-03-29T10:26:55.708Z,11.04
2023-03-29T10:29:24.735Z,11.07
2023-03-29T10:31:52.083Z,11.09
2023-03-29T10:34:20.071Z,11.08
2023-03-29T10:36:57.557Z,11.10
2023-03-29T10:39:27.912Z,11.11
2023-03-29T10:41:55.053Z,11.10
2023-03-29T10:44:32.764Z,11.11
2023-03-29T10:47:17.401Z,11.18
2023-03-29T10:49:50.889Z,11.28
2023-03-29T10:52:18.001Z,11.36
2023-03-29T10:54:45.670Z,11.38
2023-03-29T10:57:17.868Z,11.40
2023-03-29T11:00:08.077Z,11.42
2023-03-29T11:02:47.889Z,11.47
2023-03-29T11:05:15.679Z,11.48
2023-03-29T11:07:56.285Z,11.49
2023-03-29T11:10:31.369Z,11.50
2023-03-29T11:13:09.414Z,11.52
2023-03-29T11:15:54.798Z,11.50
2023-03-29T11:18:28.483Z,11.43
2023-03-29T11:21:02.110Z,11.39
2023-03-29T11:23:28.787Z,11.39
2023-03-29T11:26:08.470Z,11.40
2023-03-29T11:28:54.086Z,11.39
2023-03-29T11:31:32.675Z,11.43
2023-03-29T11:34:24.771Z,11.45
2023-03-29T11:36:57.387Z,11.50
2023-03-29T11:39:35.437Z,11.55
2023-03-29T11:42:14.500Z,11.54
2023-03-29T11:44:43.886Z,11.61
2023-03-29T11:47:17.928Z,11.62
2023-03-29T11:49:56.123Z,11.69
2023-03-29T11:52:29.016Z,11.75
2023-03-29T11:55:02.771Z,11.84
2023-03-29T11:57:37.115Z,11.89
2023-03-29T12:00:07.042Z,11.91
2023-03-29T12:02:39.616Z,11.93
2023-03-29T12:05:18.878Z,11.97
2023-03-29T12:07:53.199Z,11.93
2023-03-29T12:10:21.719Z,11.91
2023-03-29T12:13:09.424Z,11.85
2023-03-29T12:15:45.173Z,11.86
2023-03-29T12:18:22.965Z,11.84
2023-03-29T12:20:57.599Z,11.78
2023-03-29T12:23:24.410Z,11.78
2023-03-29T12:26:03.033Z,11.79
2023-03-29T12:28:34.509Z,11.79
2023-03-29T12:31:07.046Z,11.74
2023-03-29T12:33:40.862Z,11.70
2023-03-29T12:36:24.942Z,11.68
2023-03-29T12:38:52.776Z,11.66
2023-03-29T12:41:22.199Z,11.62
2023-03-29T12:43:49.718Z,11.60
2023-03-29T12:46:21.012Z,11.57
2023-03-29T12:48:51.264Z,11.53
2023-03-29T12:51:21.693Z,11.51
2023-03-29T12:53:52.611Z,11.51
2023-03-29T12:56:23.889Z,11.50
2023-03-29T12:58:53.500Z,11.53
2023-03-29T13:01:24.390Z,11.63
2023-03-29T13:04:01.991Z,11.71
2023-03-29T13:06:34.396Z,11.74
2023-03-29T13:09:21.574Z,11.75
2023-03-29T13:12:43.147Z,11.76
2023-03-29T13:15:16.888Z,11.78
2023-03-29T13:18:04.532Z,11.80
2023-03-29T13:20:46.525Z,11.84
2023-03-29T13:23:27.180Z,11.90
2023-03-29T13:26:00.299Z,11.92
2023-03-29T13:28:39.341Z,11.90
2023-03-29T13:31:21.400Z,11.94
2023-03-29T13:34:03.199Z,11.96
2023-03-29T13:36:37.745Z,11.97
2023-03-29T13:39:07.588Z,11.98
2023-03-29T13:41:38.144Z,12.00
2023-03-29T13:44:17.311Z,12.02
2023-03-29T13:46:47.529Z,12.07
2023-03-29T13:49:21.205Z,12.12
2023-03-29T13:52:12.490Z,12.13
2023-03-29T13:54:56.357Z,12.17
2023-03-29T13:57:38.553Z,12.21
2023-03-29T14:00:18.053Z,12.24
2023-03-29T14:02:51.635Z,12.28
2023-03-29T14:05:23.367Z,12.32
2023-03-29T14:07:53.008Z,12.39
2023-03-29T14:10:26.147Z,12.44
2023-03-29T14:12:53.811Z,12.49
2023-03-29T14:15:25.745Z,12.52
2023-03-29T14:17:58.299Z,12.56
2023-03-29T14:20:27.517Z,12.54
2023-03-29T14:22:54.201Z,12.57
2023-03-29T14:25:29.472Z,12.58
2023-03-29T14:27:56.425Z,12.61
2023-03-29T14:30:28.237Z,12.65
2023-03-29T14:32:56.844Z,12.69
2023-03-29T14:35:31.445Z,12.76
2023-03-29T14:37:59.567Z,12.82
2023-03-29T14:40:27.695Z,12.88
2023-03-29T14:42:55.201Z,12.96
2023-03-29T14:45:23.914Z,12.97
2023-03-29T14:47:51.588Z,12.98
2023-03-29T14:50:24.529Z,12.99
2023-03-29T14:52:52.476Z,13.01
2023-03-29T14:55:23.846Z,13.02
2023-03-29T14:57:54.273Z,13.02
2023-03-29T15:00:28.116Z,13.06
2023-03-29T15:02:58.053Z,13.08
2023-03-29T15:05:30.306Z,13.09
2023-03-29T15:07:57.072Z,13.12
2023-03-29T15:10:24.175Z,13.13
2023-03-29T15:12:51.336Z,13.14
2023-03-29T15:15:18.131Z,13.14
2023-03-29T15:17:52.358Z,13.18
2023-03-29T15:20:26.054Z,13.19
2023-03-29T15:22:56.569Z,13.17
2023-03-29T15:25:27.133Z,13.16
2023-03-29T15:28:00.239Z,13.19
2023-03-29T15:30:39.513Z,13.21
2023-03-29T15:33:16.450Z,13.21
2023-03-29T15:35:48.420Z,13.23
2023-03-29T15:38:14.952Z,13.22
2023-03-29T15:40:41.580Z,13.23
2023-03-29T15:43:08.201Z,13.22
2023-03-29T15:45:35.040Z,13.22
2023-03-29T15:48:04.685Z,13.19
2023-03-29T15:50:32.539Z,13.19
2023-03-29T15:53:08.670Z,13.19
2023-03-29T15:55:44.756Z,13.19
2023-03-29T15:58:17.193Z,13.19
2023-03-29T16:00:48.628Z,13.19
2023-03-29T16:03:16.160Z,13.18
2023-03-29T16:05:43.982Z,13.19
2023-03-29T16:08:11.994Z,13.18
2023-03-29T16:10:39.344Z,13.20
2023-03-29T16:13:06.423Z,13.20
2023-03-29T16:15:34.622Z,13.20
2023-03-29T16:18:01.221Z,13.20
2023-03-29T16:20:27.810Z,13.18
2023-03-29T16:22:55.182Z,13.17
2023-03-29T16:25:24.235Z,13.15
2023-03-29T16:27:52.576Z,13.15
2023-03-29T16:30:19.810Z,13.15
2023-03-29T16:32:46.451Z,13.16
2023-03-29T16:35:20.590Z,13.17
2023-03-29T16:37:48.519Z,13.16
2023-03-29T16:40:16.312Z,13.15
2023-03-29T16:42:42.900Z,13.14
2023-03-29T16:45:15.110Z,13.14
2023-03-29T16:47:48.139Z,13.12
2023-03-29T16:50:18.848Z,13.11
2023-03-29T16:52:48.931Z,13.08
2023-03-29T16:55:18.985Z,13.06
2023-03-29T16:57:47.967Z,13.04
2023-03-29T17:00:16.430Z,13.04
2023-03-29T17:02:44.600Z,13.02
2023-03-29T17:05:12.869Z,13.00
2023-03-29T17:07:39.705Z,13.00
2023-03-29T17:10:08.236Z,12.98
2023-03-29T17:12:35.533Z,12.97
2023-03-29T17:15:02.946Z,12.95
2023-03-29T17:17:29.576Z,12.96
2023-03-29T17:19:56.735Z,12.94
2023-03-29T17:22:25.279Z,12.92
2023-03-29T17:24:51.925Z,12.90
2023-03-29T17:27:19.013Z,12.89
2023-03-29T17:29:45.640Z,12.87
2023-03-29T17:32:12.203Z,12.85
2023-03-29T17:34:38.940Z,12.85
2023-03-29T17:37:05.611Z,12.83
2023-03-29T17:39:33.152Z,12.82
2023-03-29T17:41:59.723Z,12.79
2023-03-29T17:44:27.060Z,12.77
2023-03-29T17:46:53.720Z,12.77
2023-03-29T17:49:20.773Z,12.76
2023-03-29T17:51:47.491Z,12.75
2023-03-29T17:54:13.970Z,12.74
2023-03-29T17:56:40.800Z,12.72
2023-03-29T17:59:07.355Z,12.68
2023-03-29T18:01:34.875Z,12.64
2023-03-29T18:04:02.427Z,12.60
2023-03-29T18:06:29.071Z,12.57
2023-03-29T18:08:56.734Z,12.54
2023-03-29T18:11:24.673Z,12.47
2023-03-29T18:13:52.575Z,12.41
2023-03-29T18:16:21.616Z,12.36
2023-03-29T18:18:48.540Z,12.34
2023-03-29T18:21:16.640Z,12.29
2023-03-29T18:23:47.069Z,12.27
2023-03-29T18:26:15.402Z,12.23
2023-03-29T18:28:43.914Z,12.19
2023-03-29T18:31:10.582Z,12.14
2023-03-29T18:33:37.299Z,12.09
2023-03-29T18:36:09.170Z,12.04
2023-03-29T18:38:40.383Z,12.01
2023-03-29T18:41:08.775Z,12.01
2023-03-29T18:43:37.050Z,11.98
2023-03-29T18:46:04.038Z,11.94
2023-03-29T18:48:31.344Z,11.89
2023-03-29T18:50:58.461Z,11.84
2023-03-29T18:53:39.319Z,11.78
2023-03-29T18:56:06.662Z,11.72
2023-03-29T18:58:33.630Z,11.72
2023-03-29T19:01:02.871Z,11.72
2023-03-29T19:03:30.126Z,11.69
2023-03-29T19:05:56.937Z,11.66
2023-03-29T19:08:25.834Z,11.61
2023-03-29T19:10:53.631Z,11.61
2023-03-29T19:13:23.480Z,11.58
2023-03-29T19:15:51.835Z,11.55
2023-03-29T19:18:18.540Z,11.53
2023-03-29T19:20:45.561Z,11.49
2023-03-29T19:23:14.206Z,11.47
2023-03-29T19:25:40.805Z,11.42
2023-03-29T19:28:08.671Z,11.40
2023-03-29T19:30:36.461Z,11.40
2023-03-29T19:33:03.205Z,11.38
2023-03-29T19:35:30.039Z,11.36
2023-03-29T19:37:57.728Z,11.35
2023-03-29T19:40:24.485Z,11.31
2023-03-29T19:42:51.146Z,11.30
2023-03-29T19:45:18.136Z,11.29
2023-03-29T19:47:47.753Z,11.29
2023-03-29T19:50:14.498Z,11.25
2023-03-29T19:52:41.293Z,11.25
2023-03-29T19:55:08.410Z,11.26
2023-03-29T19:57:35.093Z,11.25
2023-03-29T20:00:02.024Z,11.22
2023-03-29T20:02:28.725Z,11.20
2023-03-29T20:04:57.772Z,11.20
2023-03-29T20:07:24.384Z,11.17
2023-03-29T20:09:51.035Z,11.17
2023-03-29T20:12:17.762Z,11.15
2023-03-29T20:14:44.383Z,11.17
2023-03-29T20:17:12.127Z,11.15
2023-03-29T20:19:43.954Z,11.11
2023-03-29T20:22:12.214Z,11.09
2023-03-29T20:24:38.866Z,11.06
2023-03-29T20:27:05.527Z,11.04
2023-03-29T20:29:33.231Z,11.03
2023-03-29T20:32:02.135Z,11.02
2023-03-29T20:34:28.996Z,11.00
2023-03-29T20:37:00.961Z,11.01
2023-03-29T20:39:31.738Z,11.01
2023-03-29T20:41:59.066Z,10.99
2023-03-29T20:44:28.416Z,11.01
2023-03-29T20:47:03.411Z,11.00
2023-03-29T20:49:37.074Z,10.99
2023-03-29T20:52:10.788Z,11.01
2023-03-29T20:54:38.770Z,11.08
2023-03-29T20:57:06.848Z,11.10
2023-03-29T20:59:38.077Z,11.15
2023-03-29T21:02:04.873Z,11.20
2023-03-29T21:04:31.659Z,11.24
2023-03-29T21:07:00.371Z,11.25
2023-03-29T21:09:28.265Z,11.26
2023-03-29T21:11:54.907Z,11.28
2023-03-29T21:14:22.225Z,11.30
2023-03-29T21:16:49.384Z,11.32
2023-03-29T21:19:16.591Z,11.31
2023-03-29T21:21:44.869Z,11.32
2023-03-29T21:24:13.816Z,11.36
2023-03-29T21:26:41.186Z,11.39
2023-03-29T21:29:08.044Z,11.36
2023-03-29T21:31:35.926Z,11.32
2023-03-29T21:34:02.786Z,11.35
2023-03-29T21:36:29.422Z,11.35
2023-03-29T21:39:06.919Z,11.37
2023-03-29T21:41:33.840Z,11.36
2023-03-29T21:44:00.720Z,11.39
2023-03-29T21:46:27.454Z,11.42
2023-03-29T21:48:54.045Z,11.41
2023-03-29T21:51:20.740Z,11.41
2023-03-29T21:53:47.507Z,11.40
2023-03-29T21:56:14.092Z,11.38
2023-03-29T21:58:40.987Z,11.35
2023-03-29T22:01:10.037Z,11.35
2023-03-29T22:03:37.841Z,11.36
2023-03-29T22:06:09.358Z,11.39
2023-03-29T22:08:38.977Z,11.40
2023-03-29T22:11:08.606Z,11.38
2023-03-29T22:13:35.624Z,11.34
2023-03-29T22:16:03.951Z,11.33
2023-03-29T22:18:43.236Z,11.34
2023-03-29T22:21:13.742Z,11.34
2023-03-29T22:23:41.830Z,11.33
2023-03-29T22:26:12.208Z,11.30
2023-03-29T22:28:39.611Z,11.27
2023-03-29T22:31:10.795Z,11.25
2023-03-29T22:33:48.642Z,11.26
2023-03-29T22:36:18.921Z,11.22
2023-03-29T22:38:47.829Z,11.19
2023-03-29T22:41:15.818Z,11.18
2023-03-29T22:43:42.859Z,11.18
2023-03-29T22:46:11.707Z,11.21
2023-03-29T22:48:38.845Z,11.21
2023-03-29T22:51:06.345Z,11.17
2023-03-29T22:53:34.805Z,11.15
2023-03-29T22:56:01.562Z,11.11
2023-03-29T22:58:29.522Z,11.08
2023-03-29T23:00:57.611Z,11.08
2023-03-29T23:03:25.508Z,11.08
2023-03-29T23:05:54.997Z,11.10
2023-03-29T23:08:22.687Z,11.09
2023-03-29T23:10:49.298Z,11.06
2023-03-29T23:13:20.547Z,11.04
2023-03-29T23:15:48.928Z,11.05
2023-03-29T23:18:18.339Z,11.07
2023-03-29T23:20:47.270Z,11.09
2023-03-29T23:23:16.498Z,11.10
2023-03-29T23:25:45.736Z,11.13
2023-03-29T23:28:13.847Z,11.14
2023-03-29T23:30:41.120Z,11.14
2023-03-29T23:33:07.843Z,11.16
2023-03-29T23:35:34.586Z,11.17
2023-03-29T23:38:01.149Z,11.20
2023-03-29T23:40:27.934Z,11.21
2023-03-29T23:43:00.521Z,11.28
2023-03-29T23:45:28.040Z,11.31
2023-03-29T23:47:56.107Z,11.32
2023-03-29T23:50:23.380Z,11.32
2023-03-29T23:52:51.496Z,11.34
2023-03-29T23:55:18.942Z,11.38
2023-03-29T23:57:45.704Z,11.41
